Tambon Pang Mu, Thailand

12:16 PM ICT on September 04, 2015 (GMT +0700)
Mae Hong Son | | Change Station
CLOSE
Current Station
Airport
Location: Mae Hong Son,
Elevation: 928 ft
Nearby Weather Stations

Elev 928 ft 19.30 °N, 97.97 °E | Updated 1 hour ago

Mostly Cloudy
Mostly Cloudy
84 °F
Feels Like 90 °F
N
2
Wind Variable Wind from Variable

Today
High -- | Low -- °F
--% Chance of Precip.
Yesterday
High -- | Low -- °F
Precip. -- in
6:13 AM 6:40 PM
Waning Gibbous, 63% visible
Pressure 29.92 in
Visibility 6.2 miles
Clouds Mostly Cloudy 2800 ft
Heat Index 90 °F
Dew Point 72 °F
Humidity 66%
Rainfall 0.00 in
Snow Depth Not available.
UV 8 out of 12
Pollen Not available.
Air Quality Not available.
Flu Activity Not available.
METAR VTCH 040400Z VRB02KT 9999 BKN028 29/22 Q1013 A2992 INFO: D
Pressure 29.92 in
Visibility 6.2 miles
Clouds Mostly Cloudy 2800 ft
Heat Index 90 °F
Dew Point 72 °F
Humidity 66%
Rainfall 0.00 in
Snow Depth Not available.
UV 8 out of 12
Pollen Not available.
Air Quality Not available.
Flu Activity Not available.
METAR VTCH 040400Z VRB02KT 9999 BKN028 29/22 Q1013 A2992 INFO: D

10-Day Weather Forecast

×

Almanac

Astronomy

Sep. 04, 2015 Rise Set
Actual Time
Civil Twilight
Nautical Twilight
Astronomical Twilight
Moon
Length of Visible Light
Length of Day
Tomorrow will be .
, % of the Moon is Illuminated

Today's Extremes

Country Highs Country Lows

Community

WunderPhotos

Upload Photos

1,852,129 photos uploaded!

WunderBlogs® & News

Nearby

Air Quality

  Air Quality AQ Index Pollutant
Not available.

Snow Depth

Station Depth Elevation

Earthquake Activity

City Distance Mag. Time & Date
Minimum magnitude displayed is 2.5.

Coastal Water Temperatures

Place Temperature

Stations

Nearby Weather Stations

Station Location Temp. Windchill Dew Point Humidity Wind Precip. Elev Updated Type